West Chester, Iowa
Current Conditions -  °F | °C
As of 9:35 AM on Monday 22 Dec 2014 (Local Time) from KAWG Reporting Station
Unknown Precip Unknown Precip  
Wind Chill: 29°   Ceiling: 2800
Heat Index: 37°   Visibility: 2.5mi
Dew Point: 37°   Wind: 14mph
Humidity: 100%   Direction: 130°SE
Pressure: 29.69"   Gusts: NA
Location:  41.34°N, 91.82°W
Report Text: KAWG 221535Z AUTO 13012KT 2 1/2SM -UP OVC028 03/03 A2969 RMK AO2
Loading
Personal Weather Stations






























Interactive Weather Map New forecast layout! Learn more

10-Day Weather Forecast

Advertisements
Track Severe Weather on mobile